ULLIULPB

Guest
Details From ULLI - Saint Petersburg Pulkovo
To ULPB - BESOVETS
Flight Number -
Tags generated
Created
Modified
Stats Distance 170 nm / 315 km
Max Altitude 13,900 ft / 4,237 m
Waypoints 3
Social Downloads 2
Likes 0
Share VATSIM

Download

Looking for another format? Having issues loading an existing format? Contact us
Advertisement - Login to hide

Notes

Basic altitude profile: - Ascent Rate: 2500ft/min - Ascent Speed: 250kts - Cruise Altitude: 32000ft - Cruise Speed: 420kts - Descent Rate: 1500ft/min - Descent Speed: 250kts Options: - Use NATs: yes - Use PACOTS: yes - Use low airways: yes - Use high airways: yes

Route

ULLI VIDLA ULPB

ID Type Via Altitude (ft/m) Position (lat/lon) Dist (leg/tot) Name
O ULLI APT - 0 / 0 59.80029 / 30.26250 - / 0 nm Saint Petersburg Pulkovo
VIDLA FIX - 13,900 / 4,237 61.20000 / 32.39750 105 / 105 nm
O ULPB APT - 0 / 0 61.88516 / 34.15474 64 / 170 nm BESOVETS

Altitude Profile

Advertisement - Login to hide

Weather


0- 5 10 15 20 25 30 35+ Temperature / °C

Clouds and Precipitation
Forecast for 2019-04-26 00:00 UTC. Updated an hour ago

Ground ~20,000 ft ~40,000 ft Winds

ULLI

Details ICAO ULLI (LED)
Name St. Petersburg Pulkovo Intl
Region Russia
Timezone Europe/Moscow (UTC+3.0)
Stats Elevation 78 ft / 24 m (AMSL)
Location 59.800300° 30.262500°
Runways 2
Magnetic Variation 10.899° E

METAR

ULLI 252230Z 11004MPS CAVOK 08/M01 Q1023 R10R/090060 NOSIG

Decode

TAF

TAF ULLI 251958Z 2521/2621 10003MPS 9999 BKN030 TEMPO 2600/2606 07003G08MPS 3100 BR TEMPO 2610/2621 -SHRA BKN025CB

Decode

Departure Runways

ID Width Length Bearing (true/mag) Surface Threshold Overrun Markings Lighting
10L 197 ft / 60 m 11,118 ft / 3,389 m 106.46° / 95.56° CONCRETE 0 ft / 0 m 236 ft / 72 m PREC-APP CENTERLINE EDGE THRESHOLD ALSF-II REIL-OMNI
10R 197 ft / 60 m 12,381 ft / 3,774 m 106.42° / 95.52° CONCRETE 0 ft / 0 m 236 ft / 72 m PREC-APP CENTERLINE EDGE THRESHOLD ALSF-II REIL-OMNI
28L 197 ft / 60 m 12,381 ft / 3,774 m 286.48° / 275.58° CONCRETE 0 ft / 0 m 236 ft / 72 m PREC-APP CENTERLINE EDGE THRESHOLD ALSF-I REIL-OMNI
28R 197 ft / 60 m 11,118 ft / 3,389 m 286.51° / 275.61° CONCRETE 0 ft / 0 m 239 ft / 73 m PREC-APP CENTERLINE EDGE THRESHOLD ALSF-II REIL-OMNI

ULPB

Details ICAO ULPB (PES)
Name BESOVETS
Region Russia
Timezone Europe/Moscow (UTC+3.0)
Stats Elevation 151 ft / 46 m (AMSL)
Location 61.885200° 34.154700°
Runways 1
Magnetic Variation 13.213° E

METAR

ULPB 252200Z AUTO 00000MPS 9999 // NCD 02/00 Q1027 RMK QFE766/1021

Decode

TAF

Not found

Destination Runways

ID Width Length Bearing (true/mag) Surface Threshold Overrun Markings Lighting
02 157 ft / 48 m 8,192 ft / 2,497 m 23.19° / 9.98° CONCRETE 0 ft / 0 m 0 ft / 0 m APP EDGE THRESHOLD
20 157 ft / 48 m 8,192 ft / 2,497 m 203.21° / 190.00° CONCRETE 0 ft / 0 m 0 ft / 0 m APP EDGE THRESHOLD MALS

Popular Alternatives